Terminal Aerodrome Forecast
Issued by NWS

Home | Current Version | Previous Version | Graphics & Text | Print | Product List | Glossary On
Versions: 1 2 3 4 5 6 7 8 9 10 11 12 13 14 15 16 17 18 19 20
000
FTUS43 KMPX 191000 AAB
TAFAXN
TAF AMD
KAXN 191000Z 1910/2006 29005KT 6SM BR SCT005 SCT200
      TEMPO 1910/1914 2SM BR BKN005
     FM191400 32007KT P6SM SCT200=

USA.gov is the U.S. government's official web portal to all federal, state and local government web resources and services.